sensor_id;sensor_type;location;lat;lon;timestamp;pressure;altitude;pressure_sealevel;temperature;humidity
6506;BME280;3286;49.858;8.768;2023-02-25T00:00:25;98082.59;;;6.03;58.43
6506;BME280;3286;49.858;8.768;2023-02-25T00:02:55;98094.47;;;5.79;59.09
6506;BME280;3286;49.858;8.768;2023-02-25T00:05:23;98092.91;;;5.30;60.57
6506;BME280;3286;49.858;8.768;2023-02-25T00:07:50;98090.53;;;5.27;60.83
6506;BME280;3286;49.858;8.768;2023-02-25T00:10:17;98099.38;;;4.69;61.46
6506;BME280;3286;49.858;8.768;2023-02-25T00:12:44;98105.31;;;3.20;65.92
6506;BME280;3286;49.858;8.768;2023-02-25T00:15:11;98108.91;;;4.50;63.60
6506;BME280;3286;49.858;8.768;2023-02-25T00:17:37;98102.97;;;4.38;62.37
6506;BME280;3286;49.858;8.768;2023-02-25T00:20:06;98119.91;;;4.14;63.09
6506;BME280;3286;49.858;8.768;2023-02-25T00:22:35;98110.69;;;4.69;61.84
6506;BME280;3286;49.858;8.768;2023-02-25T00:25:04;98115.63;;;4.23;62.04
6506;BME280;3286;49.858;8.768;2023-02-25T00:27:31;98113.28;;;4.00;62.40
6506;BME280;3286;49.858;8.768;2023-02-25T00:29:59;98110.19;;;5.03;59.47
6506;BME280;3286;49.858;8.768;2023-02-25T00:32:25;98102.16;;;5.80;56.85
6506;BME280;3286;49.858;8.768;2023-02-25T00:34:52;98097.59;;;6.29;56.07
6506;BME280;3286;49.858;8.768;2023-02-25T00:37:19;98092.88;;;6.14;56.03
6506;BME280;3286;49.858;8.768;2023-02-25T00:39:47;98100.66;;;6.06;56.99
6506;BME280;3286;49.858;8.768;2023-02-25T00:42:16;98102.91;;;6.37;55.82
6506;BME280;3286;49.858;8.768;2023-02-25T00:44:43;98107.22;;;5.92;57.56
6506;BME280;3286;49.858;8.768;2023-02-25T00:47:10;98101.63;;;6.05;57.01
6506;BME280;3286;49.858;8.768;2023-02-25T00:49:38;98114.09;;;5.65;58.12
6506;BME280;3286;49.858;8.768;2023-02-25T00:52:06;98118.53;;;5.27;58.60
6506;BME280;3286;49.858;8.768;2023-02-25T00:54:33;98128.31;;;4.77;61.10
6506;BME280;3286;49.858;8.768;2023-02-25T00:57:01;98122.66;;;5.29;59.43
6506;BME280;3286;49.858;8.768;2023-02-25T00:59:28;98119.16;;;6.04;57.73
6506;BME280;3286;49.858;8.768;2023-02-25T01:01:54;98132.22;;;6.32;57.00
6506;BME280;3286;49.858;8.768;2023-02-25T01:04:21;98141.66;;;5.69;58.58
6506;BME280;3286;49.858;8.768;2023-02-25T01:06:47;98144.03;;;5.25;59.05
6506;BME280;3286;49.858;8.768;2023-02-25T01:09:15;98134.22;;;4.79;60.74
6506;BME280;3286;49.858;8.768;2023-02-25T01:11:43;98128.59;;;5.31;59.40
6506;BME280;3286;49.858;8.768;2023-02-25T01:14:13;98136.66;;;5.10;58.77
6506;BME280;3286;49.858;8.768;2023-02-25T01:16:40;98128.84;;;4.51;61.65
6506;BME280;3286;49.858;8.768;2023-02-25T01:19:11;98119.91;;;5.21;58.97
6506;BME280;3286;49.858;8.768;2023-02-25T01:21:39;98124.72;;;4.48;61.21
6506;BME280;3286;49.858;8.768;2023-02-25T01:24:08;98106.00;;;4.73;59.50
6506;BME280;3286;49.858;8.768;2023-02-25T01:26:37;98119.47;;;3.99;61.83
6506;BME280;3286;49.858;8.768;2023-02-25T01:29:05;98118.09;;;3.95;62.19
6506;BME280;3286;49.858;8.768;2023-02-25T01:31:34;98114.94;;;4.21;60.43
6506;BME280;3286;49.858;8.768;2023-02-25T01:34:03;98119.66;;;4.57;60.03
6506;BME280;3286;49.858;8.768;2023-02-25T01:36:31;98109.03;;;4.78;60.38
6506;BME280;3286;49.858;8.768;2023-02-25T01:38:59;98104.41;;;6.40;56.17
6506;BME280;3286;49.858;8.768;2023-02-25T01:41:27;98117.84;;;5.90;57.11
6506;BME280;3286;49.858;8.768;2023-02-25T01:44:06;98112.00;;;5.97;57.46
6506;BME280;3286;49.858;8.768;2023-02-25T01:46:35;98099.31;;;6.38;56.41
6506;BME280;3286;49.858;8.768;2023-02-25T01:49:05;98097.59;;;6.29;54.59
6506;BME280;3286;49.858;8.768;2023-02-25T01:51:33;98098.59;;;5.54;57.63
6506;BME280;3286;49.858;8.768;2023-02-25T01:54:02;98102.81;;;5.83;57.25
6506;BME280;3286;49.858;8.768;2023-02-25T01:56:30;98098.56;;;5.82;57.61
6506;BME280;3286;49.858;8.768;2023-02-25T01:58:58;98097.44;;;6.30;56.81
6506;BME280;3286;49.858;8.768;2023-02-25T02:01:26;98099.66;;;5.61;58.77
6506;BME280;3286;49.858;8.768;2023-02-25T02:03:56;98102.25;;;5.89;58.31
6506;BME280;3286;49.858;8.768;2023-02-25T02:06:25;98103.13;;;6.07;57.34
6506;BME280;3286;49.858;8.768;2023-02-25T02:08:55;98103.88;;;6.54;56.37
6506;BME280;3286;49.858;8.768;2023-02-25T02:11:21;98095.63;;;6.67;55.77
6506;BME280;3286;49.858;8.768;2023-02-25T02:13:51;98096.19;;;6.79;55.48
6506;BME280;3286;49.858;8.768;2023-02-25T02:19:39;98107.09;;;6.30;56.10
6506;BME280;3286;49.858;8.768;2023-02-25T02:22:14;98112.19;;;6.49;55.93
6506;BME280;3286;49.858;8.768;2023-02-25T02:31:34;98110.47;;;6.40;56.25
6506;BME280;3286;49.858;8.768;2023-02-25T02:34:23;98116.56;;;6.41;56.30
6506;BME280;3286;49.858;8.768;2023-02-25T02:37:01;98121.16;;;4.40;60.94
6506;BME280;3286;49.858;8.768;2023-02-25T02:39:38;98132.09;;;5.12;59.57
6506;BME280;3286;49.858;8.768;2023-02-25T02:42:16;98131.38;;;5.20;59.50
6506;BME280;3286;49.858;8.768;2023-02-25T02:44:51;98123.31;;;4.84;60.09
6506;BME280;3286;49.858;8.768;2023-02-25T02:47:24;98123.63;;;5.94;57.21
6506;BME280;3286;49.858;8.768;2023-02-25T02:49:59;98120.84;;;4.72;59.42
6506;BME280;3286;49.858;8.768;2023-02-25T02:52:29;98129.41;;;4.55;60.49
6506;BME280;3286;49.858;8.768;2023-02-25T02:55:02;98135.09;;;5.17;59.11
6506;BME280;3286;49.858;8.768;2023-02-25T02:57:31;98130.72;;;4.00;62.04
6506;BME280;3286;49.858;8.768;2023-02-25T03:00:03;98125.28;;;4.32;61.44
6506;BME280;3286;49.858;8.768;2023-02-25T03:02:40;98129.28;;;4.37;61.52
6506;BME280;3286;49.858;8.768;2023-02-25T03:05:10;98127.91;;;4.72;59.79
6506;BME280;3286;49.858;8.768;2023-02-25T03:07:42;98117.84;;;5.62;57.89
6506;BME280;3286;49.858;8.768;2023-02-25T03:10:13;98138.09;;;4.65;60.27
6506;BME280;3286;49.858;8.768;2023-02-25T03:12:41;98126.03;;;5.49;57.85
6506;BME280;3286;49.858;8.768;2023-02-25T03:15:09;98132.59;;;5.63;57.10
6506;BME280;3286;49.858;8.768;2023-02-25T03:17:40;98133.03;;;5.59;57.46
6506;BME280;3286;49.858;8.768;2023-02-25T03:20:11;98127.84;;;5.01;58.81
6506;BME280;3286;49.858;8.768;2023-02-25T03:22:43;98139.63;;;5.25;58.32
6506;BME280;3286;49.858;8.768;2023-02-25T03:25:14;98144.53;;;5.76;57.57
6506;BME280;3286;49.858;8.768;2023-02-25T03:27:44;98147.09;;;5.58;57.40
6506;BME280;3286;49.858;8.768;2023-02-25T03:30:15;98150.84;;;5.83;57.43
6506;BME280;3286;49.858;8.768;2023-02-25T03:32:47;98148.59;;;5.88;56.61
6506;BME280;3286;49.858;8.768;2023-02-25T03:35:18;98146.53;;;5.92;56.40
6506;BME280;3286;49.858;8.768;2023-02-25T03:37:49;98141.56;;;5.61;56.73
6506;BME280;3286;49.858;8.768;2023-02-25T03:40:18;98145.00;;;5.61;56.31
6506;BME280;3286;49.858;8.768;2023-02-25T03:42:52;98138.78;;;5.62;57.16
6506;BME280;3286;49.858;8.768;2023-02-25T03:45:20;98135.06;;;6.39;55.08
6506;BME280;3286;49.858;8.768;2023-02-25T03:47:50;98140.44;;;5.91;54.89
6506;BME280;3286;49.858;8.768;2023-02-25T03:50:20;98146.31;;;5.75;56.46
6506;BME280;3286;49.858;8.768;2023-02-25T03:52:47;98145.25;;;5.68;56.22
6506;BME280;3286;49.858;8.768;2023-02-25T03:55:15;98155.31;;;6.01;55.06
6506;BME280;3286;49.858;8.768;2023-02-25T03:57:44;98146.56;;;5.54;56.46
6506;BME280;3286;49.858;8.768;2023-02-25T04:00:14;98145.59;;;5.83;55.72
6506;BME280;3286;49.858;8.768;2023-02-25T04:02:44;98152.66;;;5.45;56.77
6506;BME280;3286;49.858;8.768;2023-02-25T04:05:13;98162.31;;;4.67;58.19
6506;BME280;3286;49.858;8.768;2023-02-25T04:07:41;98172.63;;;5.56;56.96
6506;BME280;3286;49.858;8.768;2023-02-25T04:10:09;98174.00;;;4.83;58.21
6506;BME280;3286;49.858;8.768;2023-02-25T04:12:36;98154.34;;;5.74;55.76
6506;BME280;3286;49.858;8.768;2023-02-25T04:15:04;98163.94;;;6.11;54.35
6506;BME280;3286;49.858;8.768;2023-02-25T04:17:32;98163.38;;;6.17;54.31
6506;BME280;3286;49.858;8.768;2023-02-25T04:19:58;98165.81;;;5.73;55.96
6506;BME280;3286;49.858;8.768;2023-02-25T04:22:26;98163.00;;;6.12;54.09
6506;BME280;3286;49.858;8.768;2023-02-25T04:24:53;98167.72;;;6.08;54.46
6506;BME280;3286;49.858;8.768;2023-02-25T04:27:20;98161.00;;;6.42;53.74
6506;BME280;3286;49.858;8.768;2023-02-25T04:29:46;98166.97;;;6.16;54.00
6506;BME280;3286;49.858;8.768;2023-02-25T04:32:13;98171.03;;;5.25;55.68
6506;BME280;3286;49.858;8.768;2023-02-25T04:34:40;98167.34;;;5.93;54.45
6506;BME280;3286;49.858;8.768;2023-02-25T04:37:06;98170.97;;;4.87;57.09
6506;BME280;3286;49.858;8.768;2023-02-25T04:39:35;98178.09;;;5.15;57.25
6506;BME280;3286;49.858;8.768;2023-02-25T04:42:02;98170.97;;;4.87;57.52
6506;BME280;3286;49.858;8.768;2023-02-25T04:44:29;98169.09;;;5.37;56.54
6506;BME280;3286;49.858;8.768;2023-02-25T04:46:56;98174.28;;;4.89;58.02
6506;BME280;3286;49.858;8.768;2023-02-25T04:49:23;98169.06;;;5.47;56.58
6506;BME280;3286;49.858;8.768;2023-02-25T04:51:51;98170.91;;;5.27;57.28
6506;BME280;3286;49.858;8.768;2023-02-25T04:54:18;98170.22;;;5.25;56.84
6506;BME280;3286;49.858;8.768;2023-02-25T04:56:47;98167.88;;;5.69;55.62
6506;BME280;3286;49.858;8.768;2023-02-25T04:59:14;98168.28;;;5.64;56.43
6506;BME280;3286;49.858;8.768;2023-02-25T05:01:41;98171.94;;;6.19;54.15
6506;BME280;3286;49.858;8.768;2023-02-25T05:04:08;98177.22;;;6.56;53.08
6506;BME280;3286;49.858;8.768;2023-02-25T05:06:35;98169.81;;;5.67;55.34
6506;BME280;3286;49.858;8.768;2023-02-25T05:09:03;98170.16;;;6.10;54.87
6506;BME280;3286;49.858;8.768;2023-02-25T05:11:31;98172.91;;;5.53;55.19
6506;BME280;3286;49.858;8.768;2023-02-25T05:13:59;98173.16;;;5.87;54.88
6506;BME280;3286;49.858;8.768;2023-02-25T05:16:25;98167.75;;;5.89;55.36
6506;BME280;3286;49.858;8.768;2023-02-25T05:18:52;98158.28;;;6.16;54.48
6506;BME280;3286;49.858;8.768;2023-02-25T05:21:21;98172.34;;;5.11;56.75
6506;BME280;3286;49.858;8.768;2023-02-25T05:23:50;98164.88;;;5.06;57.42
6506;BME280;3286;49.858;8.768;2023-02-25T05:26:18;98167.00;;;4.73;57.68
6506;BME280;3286;49.858;8.768;2023-02-25T05:28:47;98158.00;;;5.15;56.62
6506;BME280;3286;49.858;8.768;2023-02-25T05:31:16;98162.78;;;5.30;56.38
6506;BME280;3286;49.858;8.768;2023-02-25T05:33:42;98170.94;;;4.28;58.65
6506;BME280;3286;49.858;8.768;2023-02-25T05:36:11;98162.88;;;4.71;57.96
6506;BME280;3286;49.858;8.768;2023-02-25T05:38:39;98171.72;;;3.89;59.77
6506;BME280;3286;49.858;8.768;2023-02-25T05:41:06;98167.13;;;4.91;57.71
6506;BME280;3286;49.858;8.768;2023-02-25T05:43:34;98174.53;;;4.27;57.86
6506;BME280;3286;49.858;8.768;2023-02-25T05:46:01;98174.88;;;5.41;55.21
6506;BME280;3286;49.858;8.768;2023-02-25T05:48:30;98162.03;;;4.31;57.72
6506;BME280;3286;49.858;8.768;2023-02-25T05:51:02;98158.59;;;4.70;57.20
6506;BME280;3286;49.858;8.768;2023-02-25T05:53:29;98149.59;;;4.03;58.58
6506;BME280;3286;49.858;8.768;2023-02-25T05:55:56;98153.25;;;3.19;60.88
6506;BME280;3286;49.858;8.768;2023-02-25T05:58:22;98159.38;;;4.21;58.24
6506;BME280;3286;49.858;8.768;2023-02-25T06:00:49;98159.59;;;3.88;59.21
6506;BME280;3286;49.858;8.768;2023-02-25T06:03:16;98158.88;;;3.45;60.47
6506;BME280;3286;49.858;8.768;2023-02-25T06:05:44;98161.25;;;3.48;60.64
6506;BME280;3286;49.858;8.768;2023-02-25T06:08:11;98166.94;;;3.63;60.69
6506;BME280;3286;49.858;8.768;2023-02-25T06:10:38;98159.75;;;3.97;59.93
6506;BME280;3286;49.858;8.768;2023-02-25T06:13:06;98157.50;;;4.43;58.17
6506;BME280;3286;49.858;8.768;2023-02-25T06:15:35;98167.53;;;4.87;56.48
6506;BME280;3286;49.858;8.768;2023-02-25T06:18:01;98169.19;;;4.68;57.17
6506;BME280;3286;49.858;8.768;2023-02-25T06:20:28;98182.69;;;4.44;57.19
6506;BME280;3286;49.858;8.768;2023-02-25T06:22:56;98187.38;;;3.89;58.82
6506;BME280;3286;49.858;8.768;2023-02-25T06:25:23;98194.13;;;4.82;56.47
6506;BME280;3286;49.858;8.768;2023-02-25T06:27:50;98189.69;;;4.83;57.00
6506;BME280;3286;49.858;8.768;2023-02-25T06:30:17;98197.78;;;4.20;57.17
6506;BME280;3286;49.858;8.768;2023-02-25T06:32:44;98206.69;;;3.67;60.29
6506;BME280;3286;49.858;8.768;2023-02-25T06:35:11;98211.19;;;4.86;57.04
6506;BME280;3286;49.858;8.768;2023-02-25T06:37:38;98211.31;;;4.55;57.11
6506;BME280;3286;49.858;8.768;2023-02-25T06:40:07;98205.41;;;4.53;57.43
6506;BME280;3286;49.858;8.768;2023-02-25T06:42:36;98209.13;;;4.80;57.10
6506;BME280;3286;49.858;8.768;2023-02-25T06:45:04;98211.34;;;4.75;56.85
6506;BME280;3286;49.858;8.768;2023-02-25T06:47:30;98205.34;;;5.32;55.28
6506;BME280;3286;49.858;8.768;2023-02-25T06:49:57;98210.09;;;4.99;55.76
6506;BME280;3286;49.858;8.768;2023-02-25T06:52:23;98206.41;;;5.59;54.54
6506;BME280;3286;49.858;8.768;2023-02-25T06:54:50;98203.06;;;4.89;56.57
6506;BME280;3286;49.858;8.768;2023-02-25T06:57:18;98211.63;;;5.59;54.53
6506;BME280;3286;49.858;8.768;2023-02-25T06:59:45;98213.50;;;5.66;54.63
6506;BME280;3286;49.858;8.768;2023-02-25T07:02:12;98217.25;;;4.87;56.57
6506;BME280;3286;49.858;8.768;2023-02-25T07:04:39;98222.31;;;4.49;58.02
6506;BME280;3286;49.858;8.768;2023-02-25T07:07:06;98218.34;;;5.24;55.50
6506;BME280;3286;49.858;8.768;2023-02-25T07:09:33;98223.00;;;4.51;57.32
6506;BME280;3286;49.858;8.768;2023-02-25T07:11:59;98223.19;;;4.09;58.99
6506;BME280;3286;49.858;8.768;2023-02-25T07:14:27;98230.78;;;4.12;58.38
6506;BME280;3286;49.858;8.768;2023-02-25T07:16:54;98230.41;;;4.36;58.62
6506;BME280;3286;49.858;8.768;2023-02-25T07:19:20;98235.50;;;3.87;59.79
6506;BME280;3286;49.858;8.768;2023-02-25T07:21:47;98227.31;;;4.91;57.14
6506;BME280;3286;49.858;8.768;2023-02-25T07:24:14;98232.31;;;4.24;57.87
6506;BME280;3286;49.858;8.768;2023-02-25T07:26:41;98234.59;;;4.58;58.08
6506;BME280;3286;49.858;8.768;2023-02-25T07:29:08;98229.31;;;5.47;55.58
6506;BME280;3286;49.858;8.768;2023-02-25T07:31:36;98235.13;;;5.21;55.83
6506;BME280;3286;49.858;8.768;2023-02-25T07:34:02;98239.50;;;5.50;55.89
6506;BME280;3286;49.858;8.768;2023-02-25T07:36:30;98231.16;;;4.87;56.84
6506;BME280;3286;49.858;8.768;2023-02-25T07:38:57;98243.41;;;4.87;57.02
6506;BME280;3286;49.858;8.768;2023-02-25T07:41:27;98245.78;;;4.80;57.90
6506;BME280;3286;49.858;8.768;2023-02-25T07:43:54;98248.28;;;4.21;58.06
6506;BME280;3286;49.858;8.768;2023-02-25T07:46:20;98246.84;;;5.27;55.46
6506;BME280;3286;49.858;8.768;2023-02-25T07:48:48;98240.06;;;4.35;58.79
6506;BME280;3286;49.858;8.768;2023-02-25T07:51:18;98244.34;;;4.46;57.74
6506;BME280;3286;49.858;8.768;2023-02-25T07:53:46;98242.19;;;5.01;56.95
6506;BME280;3286;49.858;8.768;2023-02-25T07:56:13;98238.75;;;5.00;57.37
6506;BME280;3286;49.858;8.768;2023-02-25T07:58:40;98252.72;;;4.40;59.06
6506;BME280;3286;49.858;8.768;2023-02-25T08:01:07;98249.56;;;3.65;62.34
6506;BME280;3286;49.858;8.768;2023-02-25T08:03:34;98252.19;;;4.46;58.55
6506;BME280;3286;49.858;8.768;2023-02-25T08:06:03;98248.53;;;4.88;58.29
6506;BME280;3286;49.858;8.768;2023-02-25T08:08:32;98243.34;;;3.87;60.23
6506;BME280;3286;49.858;8.768;2023-02-25T08:11:04;98252.25;;;4.15;60.26
6506;BME280;3286;49.858;8.768;2023-02-25T08:13:31;98243.41;;;4.97;58.85
6506;BME280;3286;49.858;8.768;2023-02-25T08:15:57;98243.41;;;4.97;57.95
6506;BME280;3286;49.858;8.768;2023-02-25T08:18:24;98246.34;;;4.13;60.16
6506;BME280;3286;49.858;8.768;2023-02-25T08:20:51;98249.63;;;4.86;58.85
6506;BME280;3286;49.858;8.768;2023-02-25T08:23:21;98249.47;;;4.77;58.58
6506;BME280;3286;49.858;8.768;2023-02-25T08:25:51;98253.41;;;3.91;60.81
6506;BME280;3286;49.858;8.768;2023-02-25T08:28:19;98260.03;;;4.46;61.10
6506;BME280;3286;49.858;8.768;2023-02-25T08:30:47;98249.50;;;4.97;59.50
6506;BME280;3286;49.858;8.768;2023-02-25T08:33:13;98256.63;;;5.34;58.19
6506;BME280;3286;49.858;8.768;2023-02-25T08:35:41;98257.03;;;5.20;58.43
6506;BME280;3286;49.858;8.768;2023-02-25T08:38:08;98249.19;;;5.30;57.43
6506;BME280;3286;49.858;8.768;2023-02-25T08:40:35;98257.19;;;4.89;58.34
6506;BME280;3286;49.858;8.768;2023-02-25T08:43:03;98255.66;;;5.06;58.66
6506;BME280;3286;49.858;8.768;2023-02-25T08:45:30;98248.91;;;4.64;59.69
6506;BME280;3286;49.858;8.768;2023-02-25T08:47:57;98253.06;;;4.96;59.77
6506;BME280;3286;49.858;8.768;2023-02-25T08:50:23;98256.91;;;5.02;60.28
6506;BME280;3286;49.858;8.768;2023-02-25T08:52:50;98258.44;;;4.85;59.44
6506;BME280;3286;49.858;8.768;2023-02-25T08:55:17;98252.91;;;4.88;58.86
6506;BME280;3286;49.858;8.768;2023-02-25T08:57:45;98254.03;;;4.15;60.39
6506;BME280;3286;49.858;8.768;2023-02-25T09:00:13;98259.25;;;5.05;59.11
6506;BME280;3286;49.858;8.768;2023-02-25T09:02:41;98254.81;;;5.45;57.92
6506;BME280;3286;49.858;8.768;2023-02-25T09:05:08;98265.88;;;4.79;59.77
6506;BME280;3286;49.858;8.768;2023-02-25T09:07:35;98245.88;;;4.49;59.73
6506;BME280;3286;49.858;8.768;2023-02-25T09:10:02;98255.53;;;4.68;60.08
6506;BME280;3286;49.858;8.768;2023-02-25T09:12:30;98254.72;;;5.17;59.60
6506;BME280;3286;49.858;8.768;2023-02-25T09:14:59;98251.94;;;5.28;57.18
6506;BME280;3286;49.858;8.768;2023-02-25T09:17:25;98252.94;;;4.98;59.80
6506;BME280;3286;49.858;8.768;2023-02-25T09:19:53;98254.34;;;4.22;60.93
6506;BME280;3286;49.858;8.768;2023-02-25T09:22:21;98259.78;;;4.09;60.95
6506;BME280;3286;49.858;8.768;2023-02-25T09:24:48;98255.41;;;5.09;58.60
6506;BME280;3286;49.858;8.768;2023-02-25T09:27:14;98246.72;;;4.69;59.29
6506;BME280;3286;49.858;8.768;2023-02-25T09:29:41;98240.94;;;5.34;58.11
6506;BME280;3286;49.858;8.768;2023-02-25T09:32:15;98253.47;;;5.31;58.75
6506;BME280;3286;49.858;8.768;2023-02-25T09:34:42;98260.91;;;5.93;56.25
6506;BME280;3286;49.858;8.768;2023-02-25T09:37:09;98259.09;;;6.95;53.91
6506;BME280;3286;49.858;8.768;2023-02-25T09:39:37;98255.66;;;6.77;55.09
6506;BME280;3286;49.858;8.768;2023-02-25T09:42:07;98245.84;;;7.68;52.03
6506;BME280;3286;49.858;8.768;2023-02-25T09:44:37;98252.31;;;6.93;54.92
6506;BME280;3286;49.858;8.768;2023-02-25T09:47:11;98255.97;;;5.80;56.62
6506;BME280;3286;49.858;8.768;2023-02-25T09:49:41;98252.59;;;6.35;54.43
6506;BME280;3286;49.858;8.768;2023-02-25T09:52:14;98245.28;;;7.91;51.39
6506;BME280;3286;49.858;8.768;2023-02-25T09:54:44;98261.75;;;5.06;55.92
6506;BME280;3286;49.858;8.768;2023-02-25T09:57:15;98261.59;;;5.18;56.50
6506;BME280;3286;49.858;8.768;2023-02-25T09:59:43;98254.47;;;6.43;53.15
6506;BME280;3286;49.858;8.768;2023-02-25T10:02:22;98255.91;;;6.37;52.29
6506;BME280;3286;49.858;8.768;2023-02-25T10:05:02;98253.25;;;6.00;52.69
6506;BME280;3286;49.858;8.768;2023-02-25T10:07:34;98245.66;;;6.16;52.73
6506;BME280;3286;49.858;8.768;2023-02-25T10:10:05;98256.19;;;5.97;51.16
6506;BME280;3286;49.858;8.768;2023-02-25T10:12:39;98255.09;;;5.32;52.44
6506;BME280;3286;49.858;8.768;2023-02-25T10:15:19;98253.69;;;5.47;51.57
6506;BME280;3286;49.858;8.768;2023-02-25T10:18:03;98252.91;;;4.68;53.06
6506;BME280;3286;49.858;8.768;2023-02-25T10:20:51;98250.72;;;4.73;52.77
6506;BME280;3286;49.858;8.768;2023-02-25T10:23:28;98256.78;;;5.03;52.31
6506;BME280;3286;49.858;8.768;2023-02-25T10:26:03;98252.50;;;5.22;50.89
6506;BME280;3286;49.858;8.768;2023-02-25T10:28:33;98249.25;;;6.15;49.47
6506;BME280;3286;49.858;8.768;2023-02-25T10:31:05;98265.06;;;4.79;50.77
6506;BME280;3286;49.858;8.768;2023-02-25T10:33:35;98252.41;;;4.94;51.10
6506;BME280;3286;49.858;8.768;2023-02-25T10:36:07;98257.84;;;5.50;48.99
6506;BME280;3286;49.858;8.768;2023-02-25T10:38:37;98244.69;;;6.17;49.10
6506;BME280;3286;49.858;8.768;2023-02-25T10:41:06;98252.34;;;6.29;48.54
6506;BME280;3286;49.858;8.768;2023-02-25T10:43:33;98244.22;;;7.75;46.71
6506;BME280;3286;49.858;8.768;2023-02-25T10:46:05;98247.59;;;7.94;44.66
6506;BME280;3286;49.858;8.768;2023-02-25T10:48:35;98250.47;;;6.39;46.04
6506;BME280;3286;49.858;8.768;2023-02-25T10:51:06;98244.59;;;7.54;44.16
6506;BME280;3286;49.858;8.768;2023-02-25T10:53:37;98244.28;;;7.13;44.74
6506;BME280;3286;49.858;8.768;2023-02-25T10:56:05;98242.59;;;7.03;46.11
6506;BME280;3286;49.858;8.768;2023-02-25T10:58:36;98241.13;;;7.27;46.42
6506;BME280;3286;49.858;8.768;2023-02-25T11:01:09;98229.59;;;8.50;43.58
6506;BME280;3286;49.858;8.768;2023-02-25T11:03:45;98247.63;;;6.04;46.04
6506;BME280;3286;49.858;8.768;2023-02-25T11:06:19;98240.44;;;7.25;44.86
6506;BME280;3286;49.858;8.768;2023-02-25T11:08:48;98242.31;;;7.33;44.92
6506;BME280;3286;49.858;8.768;2023-02-25T11:11:18;98244.28;;;7.13;44.69
6506;BME280;3286;49.858;8.768;2023-02-25T11:13:54;98238.84;;;8.20;43.97
6506;BME280;3286;49.858;8.768;2023-02-25T11:16:24;98257.06;;;5.77;44.89
6506;BME280;3286;49.858;8.768;2023-02-25T11:18:54;98258.03;;;5.86;45.92
6506;BME280;3286;49.858;8.768;2023-02-25T11:21:34;98240.44;;;6.06;46.75
6506;BME280;3286;49.858;8.768;2023-02-25T11:24:04;98240.25;;;7.00;44.22
6506;BME280;3286;49.858;8.768;2023-02-25T11:26:35;98233.88;;;7.03;45.32
6506;BME280;3286;49.858;8.768;2023-02-25T11:29:06;98247.09;;;7.56;44.05
6506;BME280;3286;49.858;8.768;2023-02-25T11:31:37;98238.06;;;8.27;44.86
6506;BME280;3286;49.858;8.768;2023-02-25T11:34:15;98240.03;;;8.25;42.54
6506;BME280;3286;49.858;8.768;2023-02-25T11:36:43;98234.34;;;8.47;42.69
6506;BME280;3286;49.858;8.768;2023-02-25T11:39:15;98243.91;;;7.25;45.41
6506;BME280;3286;49.858;8.768;2023-02-25T11:41:42;98245.34;;;7.02;43.83
6506;BME280;3286;49.858;8.768;2023-02-25T11:44:18;98242.75;;;7.28;44.08
6506;BME280;3286;49.858;8.768;2023-02-25T11:46:52;98240.69;;;7.14;44.46
6506;BME280;3286;49.858;8.768;2023-02-25T11:49:30;98237.44;;;7.64;43.04
6506;BME280;3286;49.858;8.768;2023-02-25T11:52:04;98235.00;;;7.18;45.51
6506;BME280;3286;49.858;8.768;2023-02-25T11:54:39;98232.47;;;8.31;44.33
6506;BME280;3286;49.858;8.768;2023-02-25T11:57:13;98226.81;;;7.48;42.68
6506;BME280;3286;49.858;8.768;2023-02-25T11:59:50;98245.22;;;4.76;49.21
6506;BME280;3286;49.858;8.768;2023-02-25T12:02:27;98239.63;;;5.58;47.59
6506;BME280;3286;49.858;8.768;2023-02-25T12:05:19;98246.50;;;6.07;47.45
6506;BME280;3286;49.858;8.768;2023-02-25T12:08:14;98241.25;;;6.35;46.30
6506;BME280;3286;49.858;8.768;2023-02-25T12:10:55;98235.78;;;5.90;48.37
6506;BME280;3286;49.858;8.768;2023-02-25T12:20:08;98237.63;;;5.03;48.98
6506;BME280;3286;49.858;8.768;2023-02-25T12:25:51;98240.16;;;6.37;46.88
6506;BME280;3286;49.858;8.768;2023-02-25T12:28:53;98227.19;;;6.54;46.84
6506;BME280;3286;49.858;8.768;2023-02-25T12:31:52;98237.22;;;5.75;49.60
6506;BME280;3286;49.858;8.768;2023-02-25T12:34:51;98249.63;;;5.05;54.63
6506;BME280;3286;49.858;8.768;2023-02-25T12:37:31;98249.22;;;4.90;54.57
6506;BME280;3286;49.858;8.768;2023-02-25T12:40:31;98259.69;;;4.10;56.53
6506;BME280;3286;49.858;8.768;2023-02-25T12:43:14;98266.13;;;4.57;55.09
6506;BME280;3286;49.858;8.768;2023-02-25T12:45:57;98274.03;;;3.95;56.84
6506;BME280;3286;49.858;8.768;2023-02-25T12:51:37;98282.56;;;4.28;58.32
6506;BME280;3286;49.858;8.768;2023-02-25T12:54:23;98282.38;;;4.70;57.76
6506;BME280;3286;49.858;8.768;2023-02-25T12:57:16;98284.34;;;3.23;62.65
6506;BME280;3286;49.858;8.768;2023-02-25T13:00:14;98276.44;;;4.08;62.94
6506;BME280;3286;49.858;8.768;2023-02-25T13:03:06;98282.38;;;4.51;60.23
6506;BME280;3286;49.858;8.768;2023-02-25T13:06:02;98265.53;;;5.61;58.79
6506;BME280;3286;49.858;8.768;2023-02-25T13:09:03;98264.47;;;6.30;56.46
6506;BME280;3286;49.858;8.768;2023-02-25T13:11:45;98261.31;;;6.26;56.75
6506;BME280;3286;49.858;8.768;2023-02-25T13:14:31;98265.19;;;5.17;58.75
6506;BME280;3286;49.858;8.768;2023-02-25T13:17:26;98271.81;;;5.01;61.35
6506;BME280;3286;49.858;8.768;2023-02-25T13:20:24;98265.22;;;6.50;59.32
6506;BME280;3286;49.858;8.768;2023-02-25T13:23:02;98262.56;;;5.94;58.24
6506;BME280;3286;49.858;8.768;2023-02-25T13:25:45;98266.28;;;4.75;61.62
6506;BME280;3286;49.858;8.768;2023-02-25T13:28:24;98262.94;;;6.37;59.38
6506;BME280;3286;49.858;8.768;2023-02-25T13:30:58;98256.75;;;6.92;57.36
6506;BME280;3286;49.858;8.768;2023-02-25T13:33:42;98260.75;;;5.85;58.78
6506;BME280;3286;49.858;8.768;2023-02-25T13:39:25;98261.03;;;5.24;58.31
6506;BME280;3286;49.858;8.768;2023-02-25T13:42:07;98252.59;;;6.35;57.93
6506;BME280;3286;49.858;8.768;2023-02-25T13:44:49;98251.22;;;6.31;55.66
6506;BME280;3286;49.858;8.768;2023-02-25T13:47:30;98247.97;;;6.19;55.02
6506;BME280;3286;49.858;8.768;2023-02-25T13:53:21;98241.91;;;4.94;57.16
6506;BME280;3286;49.858;8.768;2023-02-25T13:56:20;98240.56;;;5.67;55.34
6506;BME280;3286;49.858;8.768;2023-02-25T13:58:59;98236.19;;;6.33;53.88
6506;BME280;3286;49.858;8.768;2023-02-25T14:01:43;98241.06;;;5.80;53.09
6506;BME280;3286;49.858;8.768;2023-02-25T14:04:42;98240.28;;;5.70;52.69
6506;BME280;3286;49.858;8.768;2023-02-25T14:07:28;98241.88;;;6.47;52.89
6506;BME280;3286;49.858;8.768;2023-02-25T14:10:17;98240.81;;;7.30;49.41
6506;BME280;3286;49.858;8.768;2023-02-25T14:12:56;98232.94;;;7.83;47.13
6506;BME280;3286;49.858;8.768;2023-02-25T14:15:41;98243.09;;;8.12;46.13
6506;BME280;3286;49.858;8.768;2023-02-25T14:18:29;98247.88;;;6.57;50.17
6506;BME280;3286;49.858;8.768;2023-02-25T14:21:16;98240.97;;;7.81;47.36
6506;BME280;3286;49.858;8.768;2023-02-25T14:23:50;98247.81;;;6.49;48.38